Time;durP1;ratioP1;P1;durP2;ratioP2;P2;SDS_P1;SDS_P2;PMS_P1;PMS_P2;Temp;Humidity;BMP_temperature;BMP_pressure;BME280_temperature;BME280_humidity;BME280_pressure;Samples;Min_cycle;Max_cycle;Signal;HPM_P1;HPM_P2
2022/01/16 00:05:13;;;;;;;17.10;12.17;;;1.20;82.10;;;;;;6254269;28;20214;-64
2022/01/16 00:08:14;;;;;;;19.00;14.03;;;1.20;82.20;;;;;;6323452;28;20180;-64
2022/01/16 00:11:15;;;;;;;18.87;14.00;;;1.10;82.30;;;;;;6329817;28;20219;-64
2022/01/16 00:14:16;;;;;;;21.57;14.03;;;1.10;82.40;;;;;;6297157;28;20210;-64
2022/01/16 00:17:19;;;;;;;19.63;12.27;;;1.00;82.60;;;;;;6305156;28;20199;-64
2022/01/16 00:20:21;;;;;;;19.67;13.73;;;1.00;82.70;;;;;;6327726;28;20314;-64
2022/01/16 00:23:28;;;;;;;23.13;14.43;;;1.00;82.60;;;;;;6306624;28;20734;-64
2022/01/16 00:26:29;;;;;;;17.73;12.63;;;1.00;82.60;;;;;;6311104;28;20212;-63
2022/01/16 00:29:31;;;;;;;19.63;14.50;;;0.90;82.70;;;;;;6347868;28;20257;-63
2022/01/16 00:32:32;;;;;;;22.67;14.03;;;0.90;82.90;;;;;;6323970;28;20219;-64
2022/01/16 00:35:32;;;;;;;19.27;13.20;;;0.90;83.10;;;;;;6306263;28;20263;-64
2022/01/16 00:38:34;;;;;;;20.03;14.17;;;0.90;83.20;;;;;;6305934;28;20192;-64
2022/01/16 00:41:35;;;;;;;19.17;13.33;;;0.90;83.20;;;;;;6306545;28;20184;-65
2022/01/16 00:44:36;;;;;;;18.33;13.07;;;0.80;83.20;;;;;;6329233;28;20203;-65
2022/01/16 00:47:37;;;;;;;20.23;12.97;;;0.80;83.10;;;;;;6330545;28;20206;-65
2022/01/16 00:50:38;;;;;;;19.23;14.17;;;0.80;83.30;;;;;;6334545;28;20210;-65
2022/01/16 00:53:39;;;;;;;22.43;14.13;;;0.80;83.50;;;;;;6318804;28;20203;-64
2022/01/16 00:56:40;;;;;;;18.60;12.43;;;0.70;83.60;;;;;;6335849;28;20249;-64
2022/01/16 00:59:42;;;;;;;21.07;13.93;;;0.70;83.50;;;;;;6335785;28;20194;-63
2022/01/16 01:02:42;;;;;;;20.93;13.03;;;0.60;83.50;;;;;;6319453;28;20188;-63
2022/01/16 01:05:43;;;;;;;18.07;12.37;;;0.50;83.70;;;;;;6301931;28;20205;-63
2022/01/16 01:08:44;;;;;;;18.17;12.17;;;0.40;83.80;;;;;;6318087;28;20264;-63
2022/01/16 01:11:49;;;;;;;22.70;13.97;;;0.40;83.60;;;;;;6336165;28;20219;-63
2022/01/16 01:15:06;;;;;;;20.97;14.60;;;0.30;83.90;;;;;;6370127;27;20168;-63
2022/01/16 01:18:07;;;;;;;19.23;12.57;;;0.40;84.30;;;;;;6337910;28;20260;-63
2022/01/16 01:21:16;;;;;;;18.67;12.53;;;0.30;84.20;;;;;;6318237;28;20243;-63
2022/01/16 01:24:17;;;;;;;20.97;13.40;;;0.30;84.50;;;;;;6320009;28;20196;-63
2022/01/16 01:27:23;;;;;;;22.63;13.93;;;0.30;84.50;;;;;;6335800;28;20206;-63
2022/01/16 01:30:24;;;;;;;20.50;13.63;;;0.20;84.70;;;;;;6318812;28;20192;-63
2022/01/16 01:33:27;;;;;;;19.40;13.20;;;0.10;84.70;;;;;;6333572;28;20192;-63
2022/01/16 01:36:27;;;;;;;14.17;11.27;;;0.10;84.60;;;;;;6286970;28;20199;-63
2022/01/16 01:39:29;;;;;;;17.07;11.80;;;0.10;84.30;;;;;;6277994;28;20182;-64
2022/01/16 01:42:33;;;;;;;18.17;12.70;;;0.00;84.40;;;;;;6299516;28;20270;-65
2022/01/16 01:52:20;;;;;;;19.17;11.87;;;0.00;84.60;;;;;;6328756;28;20236;-64
2022/01/16 01:55:21;;;;;;;19.60;12.03;;;0.00;84.90;;;;;;6308957;28;20194;-65
2022/01/16 01:58:22;;;;;;;17.00;11.83;;;0.00;85.00;;;;;;6326034;28;20181;-65
2022/01/16 02:01:24;;;;;;;14.73;10.83;;;0.00;85.30;;;;;;6326665;28;20210;-65
2022/01/16 02:04:25;;;;;;;20.80;12.07;;;0.00;85.30;;;;;;6321268;28;20196;-65
2022/01/16 02:07:27;;;;;;;18.33;11.93;;;0.00;85.10;;;;;;6309193;28;20195;-65
2022/01/16 02:10:28;;;;;;;16.67;12.63;;;0.00;85.10;;;;;;6327440;28;20228;-65
2022/01/16 02:13:33;;;;;;;18.10;12.97;;;0.00;84.70;;;;;;6291852;28;20192;-64
2022/01/16 02:39:26;;;;;;;17.13;11.80;;;-3276.50;85.00;;;;;;6342516;28;20192;-63
2022/01/16 02:42:29;;;;;;;16.23;11.10;;;-3276.50;84.80;;;;;;6308645;28;20177;-63
2022/01/16 02:45:36;;;;;;;16.70;11.50;;;-3276.40;84.60;;;;;;6303102;28;20192;-64
2022/01/16 02:48:37;;;;;;;13.40;10.43;;;-3276.40;84.50;;;;;;6282366;28;20200;-65
2022/01/16 02:51:38;;;;;;;18.27;11.57;;;-3276.40;84.50;;;;;;6333390;28;20203;-65
2022/01/16 02:54:41;;;;;;;17.73;11.50;;;-3276.30;84.60;;;;;;6311727;28;20332;-65
2022/01/16 02:57:42;;;;;;;18.40;11.40;;;-3276.30;84.80;;;;;;6311944;28;20193;-65
2022/01/16 03:00:43;;;;;;;19.70;12.63;;;-3276.30;84.80;;;;;;6311120;28;20199;-65
2022/01/16 03:03:44;;;;;;;16.83;12.20;;;-3276.30;84.70;;;;;;6291245;28;20196;-65
2022/01/16 03:06:46;;;;;;;20.73;12.37;;;-3276.20;84.90;;;;;;6291360;28;20182;-65
2022/01/16 03:13:20;;;;;;;17.73;11.57;;;-3276.20;85.00;;;;;;6353823;27;20204;-66
2022/01/16 03:16:22;;;;;;;15.70;10.90;;;-3276.10;84.80;;;;;;6318101;28;20198;-66
2022/01/16 03:22:41;;;;;;;18.53;11.13;;;-3276.00;84.90;;;;;;6314964;28;20251;-64
2022/01/16 03:25:42;;;;;;;18.77;11.53;;;-3276.00;85.10;;;;;;6313000;28;20193;-65
2022/01/16 03:28:43;;;;;;;17.10;11.83;;;-3275.90;84.90;;;;;;6328669;28;20225;-65
2022/01/16 03:31:44;;;;;;;15.80;11.20;;;-3275.90;84.70;;;;;;6312230;28;20200;-64
2022/01/16 03:34:45;;;;;;;18.70;11.37;;;-3275.80;84.70;;;;;;6292887;28;20198;-65
2022/01/16 03:37:46;;;;;;;13.80;10.10;;;-3275.80;84.80;;;;;;6323754;28;20196;-64
2022/01/16 03:40:47;;;;;;;20.53;12.00;;;-3275.80;84.80;;;;;;6307069;28;20233;-64
2022/01/16 03:43:48;;;;;;;15.67;11.23;;;-3275.70;84.80;;;;;;6306296;28;20195;-64
2022/01/16 03:46:49;;;;;;;16.07;10.40;;;-3275.70;85.20;;;;;;6281858;28;20192;-64
2022/01/16 03:49:50;;;;;;;18.10;11.77;;;-3275.70;85.40;;;;;;6290118;28;20202;-64
2022/01/16 03:52:51;;;;;;;22.17;13.43;;;-3275.60;85.30;;;;;;6289792;28;20222;-64
2022/01/16 03:55:52;;;;;;;20.40;12.67;;;-3275.60;85.40;;;;;;6290375;28;20180;-64
2022/01/16 03:58:53;;;;;;;20.50;12.00;;;-3275.60;85.80;;;;;;6306609;28;20189;-64
2022/01/16 04:01:54;;;;;;;19.43;11.73;;;-3275.60;85.70;;;;;;6340570;28;20199;-64
2022/01/16 04:04:55;;;;;;;17.17;12.00;;;-3275.60;85.30;;;;;;6306983;28;20222;-64
2022/01/16 04:07:58;;;;;;;19.10;13.07;;;-3275.60;85.10;;;;;;6347513;28;20215;-63
2022/01/16 04:10:59;;;;;;;22.53;13.43;;;-3275.50;85.60;;;;;;6348587;28;20245;-63
2022/01/16 04:14:10;;;;;;;19.67;12.50;;;-3275.50;86.10;;;;;;6316881;28;20200;-63
2022/01/16 04:17:16;;;;;;;19.57;13.33;;;-3275.50;86.10;;;;;;6305432;28;20216;-63
2022/01/16 04:20:17;;;;;;;21.47;13.73;;;-3275.50;86.00;;;;;;6348272;28;20238;-63
2022/01/16 04:23:18;;;;;;;18.03;12.63;;;-3275.50;85.90;;;;;;6307833;28;20248;-63
2022/01/16 04:26:19;;;;;;;20.40;12.57;;;-3275.50;86.00;;;;;;6334739;28;20198;-63
2022/01/16 04:29:20;;;;;;;19.47;13.77;;;-3275.40;85.80;;;;;;6353560;28;20247;-63
2022/01/16 04:32:21;;;;;;;20.27;13.00;;;-3275.50;85.50;;;;;;6336272;28;20220;-63
2022/01/16 04:35:22;;;;;;;17.67;12.70;;;-3275.40;85.60;;;;;;6319924;28;20188;-63
2022/01/16 04:38:23;;;;;;;22.27;13.37;;;-3275.40;85.50;;;;;;6330300;28;20210;-64
2022/01/16 04:44:43;;;;;;;19.07;12.77;;;-3275.40;85.10;;;;;;6309108;28;20248;-65
2022/01/16 04:47:44;;;;;;;18.43;12.03;;;-3275.30;85.10;;;;;;6353299;28;20286;-65
2022/01/16 04:50:45;;;;;;;19.23;12.33;;;-3275.30;85.10;;;;;;6322907;28;20217;-65
2022/01/16 04:53:46;;;;;;;21.57;11.37;;;-3275.30;85.20;;;;;;6297146;28;20195;-65
2022/01/16 04:56:47;;;;;;;20.80;13.37;;;-3275.20;85.40;;;;;;6336183;28;20257;-65
2022/01/16 04:59:47;;;;;;;17.10;11.93;;;-3275.30;85.30;;;;;;6336006;28;20187;-65
2022/01/16 05:02:48;;;;;;;19.83;13.47;;;-3275.20;85.20;;;;;;6325616;28;20229;-64
2022/01/16 05:05:49;;;;;;;22.53;13.00;;;-3275.30;85.10;;;;;;6276990;28;20193;-65
2022/01/16 05:08:50;;;;;;;22.80;13.60;;;-3275.20;85.10;;;;;;6310969;28;20185;-65
2022/01/16 05:11:55;;;;;;;19.37;12.43;;;-3275.20;85.30;;;;;;6310555;28;20215;-64
2022/01/16 05:18:16;;;;;;;20.80;13.03;;;-3275.20;85.30;;;;;;6315678;28;20189;-64
2022/01/16 05:21:17;;;;;;;16.90;12.53;;;-3275.20;85.20;;;;;;6327318;28;20236;-66
2022/01/16 05:24:18;;;;;;;17.97;13.23;;;-3275.10;85.10;;;;;;6322324;28;20206;-66
2022/01/16 05:27:19;;;;;;;19.57;12.83;;;-3275.10;85.20;;;;;;6276766;28;20213;-66
2022/01/16 05:30:20;;;;;;;18.77;13.37;;;-3275.10;85.00;;;;;;6293256;28;20190;-66
2022/01/16 05:33:21;;;;;;;20.73;13.40;;;-3275.10;85.00;;;;;;6276681;28;20242;-67
2022/01/16 05:36:22;;;;;;;17.03;11.83;;;-3275.00;85.00;;;;;;6275967;28;20185;-66
2022/01/16 05:39:23;;;;;;;19.93;12.90;;;-3275.00;85.00;;;;;;6310270;28;20199;-66
2022/01/16 05:42:23;;;;;;;20.47;12.80;;;-3275.00;84.80;;;;;;6298468;28;20201;-66
2022/01/16 05:45:25;;;;;;;18.83;12.97;;;-3275.00;84.70;;;;;;6311163;28;20195;-66
2022/01/16 05:48:28;;;;;;;19.10;12.63;;;-3275.00;84.60;;;;;;6309124;28;20235;-66
2022/01/16 05:51:29;;;;;;;20.37;12.10;;;-3275.00;84.70;;;;;;6343205;28;20220;-66
2022/01/16 05:54:30;;;;;;;17.70;11.67;;;-3275.00;84.80;;;;;;6309267;28;20197;-63
2022/01/16 05:57:31;;;;;;;18.53;11.93;;;-3274.90;85.00;;;;;;6309105;28;20197;-63
2022/01/16 06:00:32;;;;;;;21.53;12.47;;;-3274.90;85.40;;;;;;6320852;28;20197;-63
2022/01/16 06:03:33;;;;;;;21.30;13.80;;;-3274.90;85.40;;;;;;6292389;28;20197;-61
2022/01/16 06:06:34;;;;;;;20.03;13.57;;;-3274.90;85.80;;;;;;6314227;28;20239;-61
2022/01/16 06:09:35;;;;;;;20.20;13.13;;;-3274.90;85.70;;;;;;6320483;28;20195;-65
2022/01/16 06:12:36;;;;;;;19.03;13.17;;;-3274.90;85.20;;;;;;6315220;28;20316;-65
2022/01/16 06:15:38;;;;;;;19.07;11.97;;;-3274.90;85.50;;;;;;6334350;28;20171;-62
2022/01/16 06:18:38;;;;;;;20.13;13.40;;;-3274.90;85.50;;;;;;6351542;28;20253;-62
2022/01/16 06:21:39;;;;;;;21.80;14.37;;;-3274.90;85.40;;;;;;6328713;28;20293;-61
2022/01/16 06:24:40;;;;;;;22.33;13.57;;;-3274.90;85.20;;;;;;6333669;28;20185;-62
2022/01/16 06:27:41;;;;;;;23.50;13.57;;;-3275.00;85.00;;;;;;6333888;28;20188;-62
2022/01/16 06:30:42;;;;;;;23.47;14.27;;;-3274.90;85.00;;;;;;6329966;27;20271;-62
2022/01/16 06:33:43;;;;;;;19.43;13.13;;;-3275.00;85.10;;;;;;6275449;28;20184;-61
2022/01/16 06:36:44;;;;;;;19.20;12.37;;;-3274.90;85.30;;;;;;6291704;28;20227;-61
2022/01/16 06:39:44;;;;;;;21.20;13.30;;;-3274.90;85.20;;;;;;6295486;28;20219;-61
2022/01/16 06:42:46;;;;;;;18.87;12.90;;;-3275.00;85.00;;;;;;6325857;28;20198;-61
2022/01/16 06:45:46;;;;;;;20.13;14.60;;;-3275.00;84.70;;;;;;6311495;28;20193;-61
2022/01/16 06:48:48;;;;;;;18.57;13.03;;;-3275.00;84.70;;;;;;6308927;28;20198;-62
2022/01/16 06:51:50;;;;;;;19.90;13.17;;;-3274.90;84.70;;;;;;6307727;28;20221;-62
2022/01/16 06:54:51;;;;;;;18.93;12.73;;;-3275.00;84.70;;;;;;6288491;28;20251;-62
2022/01/16 06:57:52;;;;;;;19.37;12.80;;;-3274.90;84.60;;;;;;6321508;28;20221;-62
2022/01/16 07:00:53;;;;;;;21.87;12.97;;;-3275.00;84.60;;;;;;6339560;28;20200;-62
2022/01/16 07:03:54;;;;;;;22.10;13.03;;;-3275.00;84.50;;;;;;6318518;28;20196;-62
2022/01/16 07:06:54;;;;;;;19.70;13.63;;;-3274.90;84.20;;;;;;6286787;28;20223;-62
2022/01/16 07:09:55;;;;;;;21.00;13.63;;;-3274.90;84.30;;;;;;6330727;28;20187;-62
2022/01/16 07:12:56;;;;;;;22.37;13.70;;;-3275.00;84.20;;;;;;6314099;28;20223;-62
2022/01/16 07:15:57;;;;;;;16.27;11.50;;;-3275.00;84.00;;;;;;6332194;28;20185;-62
2022/01/16 07:18:58;;;;;;;19.93;13.23;;;-3275.00;83.90;;;;;;6310082;28;20244;-62
2022/01/16 07:21:59;;;;;;;19.83;12.90;;;-3275.00;83.70;;;;;;6332465;28;20245;-62
2022/01/16 07:25:00;;;;;;;19.50;12.97;;;-3275.00;83.70;;;;;;6321981;28;20237;-63
2022/01/16 07:28:01;;;;;;;18.37;12.90;;;-3274.90;83.60;;;;;;6348016;28;20352;-62
2022/01/16 07:31:03;;;;;;;21.73;14.10;;;-3275.00;83.70;;;;;;6348684;28;20218;-62
2022/01/16 07:34:05;;;;;;;20.80;13.30;;;-3275.00;83.70;;;;;;6347657;28;20274;-61
2022/01/16 07:37:06;;;;;;;20.10;13.77;;;-3275.00;83.90;;;;;;6331958;28;20291;-63
2022/01/16 07:40:09;;;;;;;20.37;14.10;;;-3275.10;83.90;;;;;;6349417;28;20190;-63
2022/01/16 07:43:10;;;;;;;23.07;15.10;;;-3275.00;84.60;;;;;;6332207;28;20260;-62
2022/01/16 07:46:11;;;;;;;25.27;15.33;;;-3275.10;84.80;;;;;;6317999;28;20185;-62
2022/01/16 07:49:12;;;;;;;24.57;15.77;;;-3275.10;84.60;;;;;;6274089;28;20187;-64
2022/01/16 07:52:12;;;;;;;22.23;14.67;;;-3275.20;84.50;;;;;;6274206;28;20210;-62
2022/01/16 07:55:13;;;;;;;21.83;15.23;;;-3275.20;84.60;;;;;;6304196;28;20219;-62
2022/01/16 07:58:14;;;;;;;21.90;14.50;;;-3275.20;84.40;;;;;;6289559;28;20198;-61
2022/01/16 08:01:15;;;;;;;21.33;14.90;;;-3275.30;84.50;;;;;;6306800;28;20264;-61
2022/01/16 08:04:16;;;;;;;21.87;15.27;;;-3275.40;84.80;;;;;;6317554;28;20188;-62
2022/01/16 08:07:16;;;;;;;22.17;15.23;;;-3275.40;84.60;;;;;;6317047;28;20199;-62
2022/01/16 08:10:17;;;;;;;25.90;15.53;;;-3275.50;85.00;;;;;;6306279;28;20227;-66
2022/01/16 08:13:18;;;;;;;20.90;15.17;;;-3275.50;85.20;;;;;;6314386;28;20227;-63
2022/01/16 08:16:19;;;;;;;19.57;14.07;;;-3275.60;85.50;;;;;;6320544;28;20229;-63
2022/01/16 08:19:20;;;;;;;23.67;16.50;;;-3275.70;85.50;;;;;;6334924;28;20188;-63
2022/01/16 08:22:21;;;;;;;22.63;14.97;;;-3275.70;85.40;;;;;;6314691;28;20231;-63
2022/01/16 08:25:24;;;;;;;19.70;14.50;;;-3275.80;85.20;;;;;;6328411;28;20325;-63
2022/01/16 08:28:25;;;;;;;23.73;14.87;;;-3275.90;85.10;;;;;;6330142;28;20184;-63
2022/01/16 08:31:26;;;;;;;20.33;13.90;;;-3275.90;85.50;;;;;;6297749;28;20215;-63
2022/01/16 08:34:28;;;;;;;17.83;12.97;;;-3276.00;85.60;;;;;;6306636;28;20187;-63
2022/01/16 08:37:30;;;;;;;24.63;15.87;;;-3276.10;85.90;;;;;;6323489;28;20188;-63
2022/01/16 08:40:31;;;;;;;23.40;14.93;;;-3276.20;87.00;;;;;;6347146;28;20191;-63
2022/01/16 08:43:33;;;;;;;24.83;15.27;;;-3276.30;87.60;;;;;;6328446;28;20196;-62
2022/01/16 08:46:34;;;;;;;19.47;14.30;;;-3276.40;87.60;;;;;;6314435;28;20192;-63
2022/01/16 08:49:35;;;;;;;19.23;13.80;;;-3276.50;87.30;;;;;;6314575;28;20210;-64
2022/01/16 08:52:38;;;;;;;22.57;15.20;;;-3276.60;86.90;;;;;;6314114;28;20220;-63
2022/01/16 08:55:39;;;;;;;20.33;13.30;;;-3276.70;86.50;;;;;;6328252;28;20189;-63
2022/01/16 08:58:40;;;;;;;21.67;13.73;;;0.00;86.30;;;;;;6305741;28;20216;-63
2022/01/16 09:01:41;;;;;;;18.60;13.20;;;0.00;86.00;;;;;;6322486;28;20200;-63
2022/01/16 09:04:42;;;;;;;26.00;14.37;;;0.10;85.80;;;;;;6298934;28;20287;-65
2022/01/16 09:07:43;;;;;;;20.30;14.07;;;0.20;85.70;;;;;;6300822;28;20212;-66
2022/01/16 09:10:45;;;;;;;19.00;12.57;;;0.30;85.50;;;;;;6308232;28;20215;-63
2022/01/16 09:13:45;;;;;;;17.90;12.50;;;0.30;85.60;;;;;;6311542;28;20184;-63
2022/01/16 09:16:46;;;;;;;21.67;12.83;;;0.40;85.40;;;;;;6335706;28;20200;-63
2022/01/16 09:19:47;;;;;;;17.17;12.40;;;0.40;85.50;;;;;;6315308;28;20187;-63
2022/01/16 09:22:49;;;;;;;19.43;12.73;;;0.50;85.40;;;;;;6309627;28;20235;-62
2022/01/16 09:25:50;;;;;;;21.53;13.30;;;0.60;85.10;;;;;;6294008;28;20194;-63
2022/01/16 09:28:51;;;;;;;17.03;11.83;;;0.70;85.10;;;;;;6276807;28;20202;-62
2022/01/16 09:31:52;;;;;;;22.27;13.43;;;0.90;84.60;;;;;;6310058;28;20193;-61
2022/01/16 09:34:53;;;;;;;15.50;11.37;;;1.00;83.70;;;;;;6297238;28;20199;-61
2022/01/16 09:37:54;;;;;;;17.10;12.80;;;1.10;83.20;;;;;;6309442;28;20196;-63
2022/01/16 09:40:56;;;;;;;19.13;12.43;;;1.30;82.60;;;;;;6334916;28;20219;-62
2022/01/16 09:43:57;;;;;;;23.17;15.73;;;1.40;82.10;;;;;;6344557;28;20245;-62
2022/01/16 09:46:59;;;;;;;20.97;14.90;;;1.60;82.10;;;;;;6310457;28;20202;-61
2022/01/16 09:50:04;;;;;;;21.10;15.07;;;1.70;81.50;;;;;;6345600;28;20196;-62
2022/01/16 09:53:05;;;;;;;26.97;17.80;;;1.90;80.50;;;;;;6335242;28;20228;-62
2022/01/16 09:56:07;;;;;;;24.43;15.87;;;2.00;79.50;;;;;;6309840;28;20192;-63
2022/01/16 09:59:08;;;;;;;21.83;14.90;;;1.90;79.70;;;;;;6325883;28;20627;-62
2022/01/16 10:02:09;;;;;;;20.33;15.50;;;2.00;79.90;;;;;;6332075;28;20207;-63
2022/01/16 10:05:24;;;;;;;22.17;16.10;;;2.00;79.40;;;;;;6300683;28;20233;-63
2022/01/16 10:08:28;;;;;;;23.73;17.47;;;2.10;79.10;;;;;;6328765;28;20188;-63
2022/01/16 10:11:41;;;;;;;19.53;14.13;;;2.20;78.50;;;;;;6323373;28;20337;-61
2022/01/16 10:14:47;;;;;;;18.33;13.67;;;2.30;78.50;;;;;;6290115;28;20189;-62
2022/01/16 10:17:51;;;;;;;20.27;15.23;;;2.30;78.80;;;;;;6294184;28;20216;-62
2022/01/16 10:20:51;;;;;;;25.63;17.77;;;2.30;78.10;;;;;;6328475;28;20232;-62
2022/01/16 10:23:52;;;;;;;25.23;17.97;;;2.60;77.20;;;;;;6333633;28;20261;-62
2022/01/16 10:27:17;;;;;;;31.03;19.13;;;2.60;77.40;;;;;;6333540;28;20198;-62
2022/01/16 10:30:18;;;;;;;30.83;20.53;;;2.70;76.70;;;;;;6351209;28;20172;-62
2022/01/16 10:33:21;;;;;;;33.93;23.13;;;2.80;76.60;;;;;;6337156;28;20221;-62
2022/01/16 10:36:37;;;;;;;24.73;17.60;;;2.80;77.00;;;;;;6346885;28;20586;-62
2022/01/16 10:40:16;;;;;;;22.97;16.97;;;2.80;76.80;;;;;;6325611;28;20177;-60
2022/01/16 10:43:19;;;;;;;21.93;16.40;;;2.90;76.80;;;;;;6290290;28;20192;-59
2022/01/16 10:46:25;;;;;;;25.33;15.63;;;3.00;77.00;;;;;;6333704;28;20195;-58
2022/01/16 10:49:26;;;;;;;24.40;17.17;;;3.10;76.50;;;;;;6291528;28;20537;-57
2022/01/16 10:52:27;;;;;;;24.67;18.03;;;3.30;76.20;;;;;;6308221;28;20266;-57
2022/01/16 10:55:41;;;;;;;16.23;12.43;;;3.40;75.90;;;;;;6307740;28;20188;-58
2022/01/16 10:58:42;;;;;;;26.93;16.47;;;3.40;75.40;;;;;;6307500;28;20199;-56
2022/01/16 11:02:06;;;;;;;25.70;16.60;;;3.60;74.60;;;;;;6294514;28;20228;-57
2022/01/16 11:05:41;;;;;;;24.63;17.10;;;3.60;73.90;;;;;;6286506;28;20234;-57
2022/01/16 11:08:53;;;;;;;21.00;14.10;;;3.80;73.60;;;;;;6299946;28;20215;-58
2022/01/16 11:12:01;;;;;;;23.07;15.60;;;3.80;73.90;;;;;;6299771;28;20208;-58
2022/01/16 11:15:04;;;;;;;23.33;15.07;;;4.00;73.10;;;;;;6312675;28;20202;-59
2022/01/16 11:18:06;;;;;;;21.03;15.70;;;4.10;73.60;;;;;;6307260;28;20197;-58
2022/01/16 11:27:32;;;;;;;19.43;14.90;;;4.30;72.20;;;;;;6321411;28;20204;-58
2022/01/16 11:30:39;;;;;;;20.97;14.93;;;4.30;72.00;;;;;;6306960;28;20199;-59
2022/01/16 11:33:41;;;;;;;22.17;15.20;;;4.30;73.20;;;;;;6323551;28;20181;-58
2022/01/16 11:36:43;;;;;;;20.67;14.27;;;4.50;72.30;;;;;;6307083;28;20177;-59
2022/01/16 11:39:44;;;;;;;19.70;14.90;;;4.60;72.50;;;;;;6323853;28;20639;-57
2022/01/16 11:43:05;;;;;;;20.57;14.30;;;4.50;71.20;;;;;;6273490;28;20191;-58
2022/01/16 11:46:12;;;;;;;19.77;14.90;;;4.70;71.20;;;;;;6310308;28;20276;-59
2022/01/16 11:49:18;;;;;;;17.27;12.93;;;4.80;71.30;;;;;;6361240;27;20671;-59
2022/01/16 11:52:19;;;;;;;20.80;14.73;;;4.80;72.00;;;;;;6290484;28;20220;-58
2022/01/16 11:55:35;;;;;;;17.13;13.03;;;5.00;70.30;;;;;;6290083;28;20191;-58
2022/01/16 11:59:10;;;;;;;20.00;14.63;;;5.00;70.40;;;;;;6315708;28;20312;-59
2022/01/16 12:02:15;;;;;;;19.67;13.47;;;5.30;70.10;;;;;;6302881;28;20244;-60
2022/01/16 12:05:26;;;;;;;19.70;14.63;;;5.50;69.20;;;;;;6321332;28;20211;-60
2022/01/16 12:08:34;;;;;;;21.33;14.57;;;5.50;68.30;;;;;;6299883;28;20188;-60
2022/01/16 12:11:37;;;;;;;20.10;13.53;;;5.70;67.80;;;;;;6327272;28;20219;-60
2022/01/16 12:14:52;;;;;;;23.27;14.23;;;5.80;67.50;;;;;;6314626;28;20186;-58
2022/01/16 12:17:53;;;;;;;21.07;14.53;;;6.10;66.50;;;;;;6340100;28;20195;-60
2022/01/16 12:20:54;;;;;;;20.67;13.87;;;6.20;66.40;;;;;;6291016;28;20267;-60
2022/01/16 12:23:55;;;;;;;16.07;13.47;;;6.10;65.90;;;;;;6305939;28;20192;-60
2022/01/16 12:27:22;;;;;;;20.27;13.07;;;6.30;64.70;;;;;;6306352;28;20220;-62
2022/01/16 12:30:33;;;;;;;22.43;14.70;;;6.20;65.40;;;;;;6309818;28;20199;-62
2022/01/16 12:33:42;;;;;;;22.43;13.97;;;6.40;64.50;;;;;;6330212;28;20199;-62
2022/01/16 12:36:43;;;;;;;19.63;13.83;;;6.40;64.60;;;;;;6331020;28;20214;-63
2022/01/16 12:39:44;;;;;;;18.00;14.23;;;6.40;63.60;;;;;;6326283;28;20187;-62
2022/01/16 12:42:45;;;;;;;18.87;13.90;;;6.40;64.60;;;;;;6292261;28;20214;-62
2022/01/16 12:45:46;;;;;;;20.23;14.40;;;6.70;64.00;;;;;;6333011;28;20194;-63
2022/01/16 12:48:51;;;;;;;19.73;14.30;;;6.80;63.40;;;;;;6293171;28;20213;-63
2022/01/16 12:51:58;;;;;;;20.47;14.77;;;6.80;63.30;;;;;;6297519;28;20213;-61
2022/01/16 12:55:07;;;;;;;18.00;12.97;;;7.00;62.80;;;;;;6321392;28;20193;-62
2022/01/16 12:58:19;;;;;;;19.47;14.63;;;7.30;62.10;;;;;;6328704;28;20201;-63
2022/01/16 13:01:20;;;;;;;17.33;13.23;;;7.40;60.70;;;;;;6310951;28;20215;-62
2022/01/16 13:04:26;;;;;;;20.17;14.53;;;7.30;60.90;;;;;;6326073;28;20195;-63
2022/01/16 13:07:27;;;;;;;19.60;14.23;;;7.40;60.60;;;;;;6310366;28;20196;-63
2022/01/16 13:10:28;;;;;;;20.47;13.83;;;7.50;60.90;;;;;;6327415;28;20203;-62
2022/01/16 13:13:33;;;;;;;18.80;13.20;;;7.70;59.90;;;;;;6316146;28;20229;-62
2022/01/16 13:16:37;;;;;;;19.27;13.63;;;7.90;59.10;;;;;;6310058;28;20189;-62
2022/01/16 13:19:55;;;;;;;16.30;12.87;;;7.80;59.80;;;;;;6341897;28;20196;-61
2022/01/16 13:22:56;;;;;;;16.30;12.73;;;7.70;59.60;;;;;;6317649;28;20235;-62
2022/01/16 13:25:57;;;;;;;16.03;12.73;;;8.00;58.80;;;;;;6301827;28;20188;-62
2022/01/16 13:29:04;;;;;;;19.70;13.57;;;8.10;57.70;;;;;;6335486;28;20191;-62
2022/01/16 13:32:10;;;;;;;17.43;12.47;;;8.20;57.80;;;;;;6331599;28;20227;-62
2022/01/16 13:35:17;;;;;;;17.40;13.17;;;8.20;58.30;;;;;;6325811;28;20212;-62
2022/01/16 13:38:19;;;;;;;16.87;13.30;;;8.50;56.90;;;;;;6309146;28;20271;-63
2022/01/16 13:41:20;;;;;;;18.43;12.87;;;8.70;55.90;;;;;;6316454;28;20205;-63
2022/01/16 13:44:28;;;;;;;20.07;13.03;;;8.90;55.60;;;;;;6333586;28;20234;-63
2022/01/16 13:47:28;;;;;;;20.20;13.33;;;9.20;54.40;;;;;;6335815;28;20192;-64
2022/01/16 13:50:49;;;;;;;16.10;13.10;;;9.90;53.30;;;;;;6327984;28;20203;-64
2022/01/16 13:53:49;;;;;;;17.40;11.87;;;11.40;49.50;;;;;;6322795;28;20220;-63
2022/01/16 13:56:50;;;;;;;19.17;12.23;;;12.40;46.20;;;;;;6322423;28;20198;-63
2022/01/16 13:59:59;;;;;;;17.67;12.70;;;13.70;42.60;;;;;;6312229;28;20192;-63
2022/01/16 14:03:11;;;;;;;17.50;12.30;;;14.30;41.40;;;;;;6309247;28;20262;-62
2022/01/16 14:06:16;;;;;;;17.70;12.63;;;14.30;41.00;;;;;;6346845;28;20250;-64
2022/01/16 14:09:19;;;;;;;18.10;12.97;;;14.40;40.10;;;;;;6316820;28;20291;-63
2022/01/16 14:12:19;;;;;;;14.20;12.43;;;14.70;39.60;;;;;;6289279;28;20341;-63
2022/01/16 14:15:20;;;;;;;19.73;13.03;;;14.60;39.60;;;;;;6316309;28;20195;-63
2022/01/16 14:18:39;;;;;;;16.70;13.07;;;13.90;40.70;;;;;;6311134;28;20208;-63
2022/01/16 14:21:59;;;;;;;16.47;12.93;;;13.50;41.70;;;;;;6299824;28;20236;-63
2022/01/16 14:25:02;;;;;;;14.40;12.10;;;13.40;42.10;;;;;;6292903;28;20220;-63
2022/01/16 14:28:03;;;;;;;16.67;13.13;;;13.40;42.30;;;;;;6285168;28;20204;-63
2022/01/16 14:31:04;;;;;;;20.07;13.73;;;13.30;42.70;;;;;;6322821;28;20208;-64
2022/01/16 14:34:05;;;;;;;17.17;12.57;;;13.50;42.10;;;;;;6291703;28;20198;-65
2022/01/16 14:37:10;;;;;;;19.40;13.00;;;13.80;41.00;;;;;;6296159;28;20262;-63
2022/01/16 14:40:11;;;;;;;16.37;12.50;;;14.30;40.50;;;;;;6300029;28;20193;-63
2022/01/16 14:43:18;;;;;;;19.33;13.97;;;14.50;39.50;;;;;;6314804;28;20197;-63
2022/01/16 14:46:19;;;;;;;16.23;12.80;;;14.60;39.70;;;;;;6314296;28;20197;-64
2022/01/16 14:49:20;;;;;;;16.33;12.97;;;14.00;40.50;;;;;;6353294;27;20277;-63
2022/01/16 14:52:21;;;;;;;18.60;14.37;;;13.90;40.50;;;;;;6340898;28;20220;-63
2022/01/16 14:55:22;;;;;;;15.13;12.00;;;13.40;41.30;;;;;;6315432;28;20192;-64
2022/01/16 14:58:23;;;;;;;18.03;12.97;;;12.90;43.00;;;;;;6333305;28;20225;-63
2022/01/16 15:01:24;;;;;;;17.37;12.83;;;12.60;43.40;;;;;;6316159;28;20206;-63
2022/01/16 15:04:25;;;;;;;16.33;12.73;;;12.30;44.40;;;;;;6309852;28;20282;-63
2022/01/16 15:07:25;;;;;;;15.57;12.47;;;11.40;46.00;;;;;;6331814;28;20337;-63
2022/01/16 15:10:31;;;;;;;16.20;12.47;;;10.70;47.70;;;;;;6318195;28;20200;-63
2022/01/16 15:13:32;;;;;;;16.03;11.47;;;10.00;49.80;;;;;;6307428;28;20227;-62
2022/01/16 15:16:35;;;;;;;27.03;17.03;;;9.00;52.30;;;;;;6303593;28;20237;-62
2022/01/16 15:19:37;;;;;;;35.40;18.87;;;8.40;54.00;;;;;;6324397;28;20187;-62
2022/01/16 15:22:38;;;;;;;39.87;20.70;;;7.70;56.60;;;;;;6307625;28;20236;-62
2022/01/16 15:25:38;;;;;;;29.83;17.90;;;7.30;57.40;;;;;;6328395;28;20195;-61
2022/01/16 15:28:39;;;;;;;31.80;17.67;;;6.80;59.10;;;;;;6332463;28;20183;-63
2022/01/16 15:31:41;;;;;;;29.10;17.23;;;6.50;60.40;;;;;;6314216;28;20211;-61
2022/01/16 15:34:42;;;;;;;31.33;18.13;;;6.20;61.40;;;;;;6334915;28;20202;-60
2022/01/16 15:37:48;;;;;;;29.10;16.70;;;5.90;62.50;;;;;;6331718;28;20188;-61
2022/01/16 15:40:48;;;;;;;26.17;17.27;;;5.60;63.50;;;;;;6311532;28;20270;-63
2022/01/16 15:43:50;;;;;;;24.97;16.17;;;5.30;64.20;;;;;;6315135;28;20188;-63
2022/01/16 15:46:51;;;;;;;23.53;16.23;;;5.20;64.70;;;;;;6310982;28;20219;-62
2022/01/16 15:49:52;;;;;;;20.77;14.40;;;5.00;65.80;;;;;;6307021;28;20198;-63
2022/01/16 15:52:53;;;;;;;19.00;13.37;;;4.90;66.10;;;;;;6314358;28;20226;-63
2022/01/16 15:55:54;;;;;;;16.23;12.27;;;4.80;66.60;;;;;;6316977;28;20192;-62
2022/01/16 15:58:56;;;;;;;19.43;13.17;;;4.60;67.30;;;;;;6291884;28;20332;-63
2022/01/16 16:01:58;;;;;;;19.03;14.20;;;4.40;68.20;;;;;;6334829;28;20197;-64
2022/01/16 16:04:59;;;;;;;20.33;12.30;;;4.30;68.50;;;;;;6315146;28;20254;-65
2022/01/16 16:08:00;;;;;;;16.93;11.47;;;4.10;69.10;;;;;;6332081;28;20194;-65
2022/01/16 16:11:01;;;;;;;18.97;13.40;;;3.90;68.90;;;;;;6314134;28;20198;-65
2022/01/16 16:14:02;;;;;;;15.03;12.00;;;3.90;69.10;;;;;;6335755;28;20183;-65